createdAt,value
2018-07-11T00:00:20.175Z,31.67
2018-07-11T00:02:50.219Z,32.73
2018-07-11T00:05:21.555Z,28.47
2018-07-11T00:07:51.019Z,26.27
2018-07-11T00:10:20.606Z,25.57
2018-07-11T00:12:50.243Z,23.80
2018-07-11T00:15:19.750Z,23.00
2018-07-11T00:17:50.828Z,23.63
2018-07-11T00:20:21.865Z,29.63
2018-07-11T00:22:52.882Z,25.23
2018-07-11T00:25:23.548Z,24.90
2018-07-11T00:27:53.788Z,24.73
2018-07-11T00:30:24.733Z,28.07
2018-07-11T00:32:57.539Z,23.70
2018-07-11T00:35:27.555Z,26.97
2018-07-11T00:37:59.944Z,24.17
2018-07-11T00:40:32.097Z,23.90
2018-07-11T00:43:02.481Z,24.90
2018-07-11T00:45:32.524Z,26.13
2018-07-11T00:48:04.440Z,24.57
2018-07-11T00:50:35.691Z,21.33
2018-07-11T00:53:06.084Z,20.47
2018-07-11T00:55:38.073Z,22.23
2018-07-11T00:58:22.500Z,21.70
2018-07-11T01:01:03.693Z,21.57
2018-07-11T01:03:39.315Z,20.97
2018-07-11T01:06:10.423Z,21.67
2018-07-11T01:08:42.986Z,21.07
2018-07-11T01:11:18.287Z,21.00
2018-07-11T01:13:49.549Z,23.63
2018-07-11T01:16:23.905Z,24.20
2018-07-11T01:19:00.355Z,23.23
2018-07-11T01:21:31.149Z,24.03
2018-07-11T01:24:02.734Z,23.90
2018-07-11T01:26:41.517Z,24.13
2018-07-11T01:29:13.175Z,23.37
2018-07-11T01:31:44.197Z,23.47
2018-07-11T01:34:13.919Z,23.80
2018-07-11T01:39:42.264Z,24.07
2018-07-11T01:42:12.012Z,24.80
2018-07-11T01:44:43.072Z,24.80
2018-07-11T01:47:12.702Z,26.23
2018-07-11T01:49:44.302Z,25.03
2018-07-11T01:52:26.540Z,26.43
2018-07-11T01:54:56.175Z,26.53
2018-07-11T01:57:25.970Z,26.33
2018-07-11T02:05:49.657Z,26.50
2018-07-11T02:08:19.185Z,29.77
2018-07-11T02:10:50.192Z,28.27
2018-07-11T02:13:20.105Z,31.13
2018-07-11T02:15:50.569Z,28.83
2018-07-11T02:18:22.795Z,28.03
2018-07-11T02:20:53.234Z,31.83
2018-07-11T02:23:23.594Z,29.97
2018-07-11T02:25:55.911Z,30.70
2018-07-11T02:28:25.431Z,30.80
2018-07-11T02:30:56.395Z,31.10
2018-07-11T02:33:27.758Z,29.23
2018-07-11T02:36:11.138Z,24.33
2018-07-11T02:38:40.946Z,18.53
2018-07-11T02:41:14.219Z,15.50
2018-07-11T02:46:44.265Z,14.53
2018-07-11T02:49:15.546Z,14.73
2018-07-11T02:51:46.143Z,12.77
2018-07-11T02:57:13.157Z,12.87
2018-07-11T02:59:43.320Z,12.77
2018-07-11T03:02:20.958Z,13.40
2018-07-11T03:04:51.073Z,14.77
2018-07-11T03:07:20.635Z,13.97
2018-07-11T03:09:51.753Z,14.20
2018-07-11T03:12:21.188Z,15.47
2018-07-11T03:14:52.982Z,15.40
2018-07-11T03:17:23.108Z,14.17
2018-07-11T03:19:54.149Z,14.63
2018-07-11T03:22:23.682Z,13.77
2018-07-11T03:24:53.224Z,14.20
2018-07-11T03:27:23.618Z,13.97
2018-07-11T03:29:58.068Z,16.80
2018-07-11T03:32:30.506Z,16.43
2018-07-11T03:35:02.280Z,18.40
2018-07-11T03:37:32.729Z,17.70
2018-07-11T03:40:02.832Z,17.83
2018-07-11T03:42:33.844Z,17.10
2018-07-11T03:45:03.477Z,15.70
2018-07-11T03:47:33.016Z,12.10
2018-07-11T03:50:03.762Z,12.60
2018-07-11T03:52:35.422Z,13.73
2018-07-11T03:55:05.138Z,12.97
2018-07-11T03:57:35.797Z,11.63
2018-07-11T04:00:06.755Z,11.60
2018-07-11T04:02:36.413Z,11.20
2018-07-11T04:05:10.104Z,9.80
2018-07-11T04:10:34.807Z,8.90
2018-07-11T04:13:05.482Z,7.80
2018-07-11T04:15:35.034Z,8.83
2018-07-11T04:18:04.539Z,8.77
2018-07-11T04:20:34.542Z,8.13
2018-07-11T04:23:05.185Z,9.30
2018-07-11T04:25:34.809Z,8.80
2018-07-11T04:28:06.028Z,8.47
2018-07-11T04:30:35.835Z,8.50
2018-07-11T04:33:05.261Z,8.20
2018-07-11T04:35:34.996Z,7.73
2018-07-11T04:38:05.549Z,7.83
2018-07-11T04:40:35.145Z,7.40
2018-07-11T04:43:04.878Z,7.57
2018-07-11T04:45:34.495Z,8.03
2018-07-11T04:48:04.239Z,6.80
2018-07-11T04:50:34.856Z,7.83
2018-07-11T04:53:09.451Z,6.43
2018-07-11T04:55:39.584Z,6.20
2018-07-11T04:58:11.912Z,7.47
2018-07-11T05:00:41.418Z,6.33
2018-07-11T05:03:10.986Z,6.30
2018-07-11T05:05:40.768Z,7.00
2018-07-11T05:08:31.531Z,6.90
2018-07-11T05:11:00.957Z,5.83
2018-07-11T05:13:31.736Z,6.23
2018-07-11T05:16:01.251Z,5.93
2018-07-11T05:18:33.417Z,6.00
2018-07-11T05:21:03.676Z,6.40
2018-07-11T05:23:33.091Z,6.40
2018-07-11T05:26:03.202Z,6.13
2018-07-11T05:28:33.663Z,6.37
2018-07-11T05:31:03.975Z,7.23
2018-07-11T05:33:33.490Z,6.20
2018-07-11T05:36:03.562Z,6.97
2018-07-11T05:38:34.835Z,6.27
2018-07-11T05:41:04.546Z,6.03
2018-07-11T05:43:34.055Z,6.37
2018-07-11T05:46:04.964Z,6.93
2018-07-11T05:48:35.553Z,6.90
2018-07-11T05:51:05.608Z,6.67
2018-07-11T05:53:36.288Z,6.70
2018-07-11T05:56:05.936Z,6.53
2018-07-11T05:58:37.961Z,5.90
2018-07-11T06:01:08.350Z,6.77
2018-07-11T06:03:42.990Z,6.00
2018-07-11T06:06:13.065Z,6.00
2018-07-11T06:09:01.870Z,5.93
2018-07-11T06:11:32.261Z,6.33
2018-07-11T06:14:02.437Z,6.23
2018-07-11T06:16:32.062Z,5.90
2018-07-11T06:19:01.642Z,6.90
2018-07-11T06:21:31.650Z,7.00
2018-07-11T06:24:02.022Z,6.07
2018-07-11T06:26:32.210Z,7.00
2018-07-11T06:29:02.852Z,6.50
2018-07-11T06:31:34.493Z,6.17
2018-07-11T06:34:04.225Z,6.13
2018-07-11T06:36:33.761Z,5.40
2018-07-11T06:39:03.293Z,6.87
2018-07-11T06:41:35.617Z,6.13
2018-07-11T06:44:05.300Z,6.57
2018-07-11T06:46:41.754Z,6.23
2018-07-11T06:49:11.775Z,6.30
2018-07-11T06:51:41.290Z,6.47
2018-07-11T06:54:12.509Z,5.90
2018-07-11T06:56:42.185Z,5.37
2018-07-11T06:59:11.823Z,5.30
2018-07-11T07:01:41.257Z,6.13
2018-07-11T07:04:10.746Z,6.13
2018-07-11T07:06:41.020Z,5.40
2018-07-11T07:09:10.600Z,5.33
2018-07-11T07:11:40.172Z,5.30
2018-07-11T07:14:09.617Z,5.73
2018-07-11T07:16:39.269Z,7.17
2018-07-11T07:19:08.647Z,5.83
2018-07-11T07:21:38.135Z,4.93
2018-07-11T07:24:08.253Z,5.10
2018-07-11T07:26:37.670Z,4.60
2018-07-11T07:29:07.214Z,4.97
2018-07-11T07:31:36.766Z,5.40
2018-07-11T07:34:06.426Z,4.23
2018-07-11T07:36:35.837Z,5.37
2018-07-11T07:39:05.815Z,5.23
2018-07-11T07:41:35.316Z,5.10
2018-07-11T07:44:04.987Z,4.60
2018-07-11T07:46:34.920Z,5.00
2018-07-11T07:49:04.392Z,5.10
2018-07-11T07:54:31.260Z,4.90
2018-07-11T07:57:00.904Z,5.47
2018-07-11T07:59:30.446Z,5.20
2018-07-11T08:02:00.131Z,5.10
2018-07-11T08:04:29.636Z,5.97
2018-07-11T08:06:59.608Z,5.50
2018-07-11T08:09:29.085Z,5.00
2018-07-11T08:11:58.575Z,5.40
2018-07-11T08:14:27.992Z,5.27
2018-07-11T08:16:57.568Z,5.30
2018-07-11T08:19:27.114Z,5.07
2018-07-11T08:21:56.270Z,4.97
2018-07-11T08:24:36.733Z,5.30
2018-07-11T08:27:20.141Z,5.63
2018-07-11T08:29:58.132Z,5.93
2018-07-11T08:33:35.016Z,5.17
2018-07-11T08:36:15.945Z,6.23
2018-07-11T08:39:01.420Z,6.00
2018-07-11T08:41:42.104Z,5.20
2018-07-11T08:46:27.317Z,5.53
2018-07-11T08:51:11.728Z,4.53
2018-07-11T08:53:52.198Z,6.50
2018-07-11T08:56:32.726Z,6.60
2018-07-11T08:59:31.490Z,7.03
2018-07-11T09:15:45.306Z,6.97
2018-07-11T09:18:23.300Z,5.90
2018-07-11T09:23:15.203Z,6.60
2018-07-11T09:25:44.593Z,8.40
2018-07-11T09:28:14.123Z,6.90
2018-07-11T09:30:43.610Z,6.60
2018-07-11T09:33:13.551Z,7.33
2018-07-11T09:35:43.047Z,7.67
2018-07-11T09:38:12.762Z,7.97
2018-07-11T09:40:42.221Z,8.00
2018-07-11T09:43:12.124Z,7.17
2018-07-11T09:45:42.005Z,7.43
2018-07-11T09:48:11.625Z,6.87
2018-07-11T09:50:41.174Z,7.40
2018-07-11T09:53:10.639Z,7.13
2018-07-11T09:55:40.161Z,6.87
2018-07-11T09:58:09.721Z,6.63
2018-07-11T10:00:44.430Z,6.67
2018-07-11T10:03:15.012Z,6.60
2018-07-11T10:05:44.427Z,6.97
2018-07-11T10:08:13.875Z,6.33
2018-07-11T10:10:43.394Z,7.57
2018-07-11T10:13:12.954Z,7.03
2018-07-11T10:15:42.471Z,6.33
2018-07-11T10:18:12.564Z,7.10
2018-07-11T10:20:42.229Z,7.00
2018-07-11T10:23:11.754Z,6.57
2018-07-11T10:25:41.657Z,7.60
2018-07-11T10:28:19.244Z,6.20
2018-07-11T10:30:49.296Z,7.07
2018-07-11T10:33:18.765Z,7.30
2018-07-11T10:35:48.240Z,6.50
2018-07-11T10:38:17.923Z,6.50
2018-07-11T10:40:47.409Z,4.70
2018-07-11T10:43:16.871Z,4.23
2018-07-11T10:45:46.371Z,5.37
2018-07-11T10:48:15.806Z,5.50
2018-07-11T10:50:45.416Z,5.27
2018-07-11T10:53:14.890Z,5.40
2018-07-11T10:55:44.379Z,4.70
2018-07-11T10:58:14.093Z,5.97
2018-07-11T11:01:05.024Z,5.73
2018-07-11T11:03:13.208Z,5.67
2018-07-11T11:05:42.646Z,5.97
2018-07-11T11:08:12.267Z,5.83
2018-07-11T11:10:42.179Z,5.70
2018-07-11T11:13:11.952Z,5.93
2018-07-11T11:15:42.027Z,6.60
2018-07-11T11:18:12.467Z,5.83
2018-07-11T11:20:42.403Z,5.93
2018-07-11T11:23:12.388Z,7.03
2018-07-11T11:25:42.424Z,6.80
2018-07-11T11:28:12.802Z,6.90
2018-07-11T11:30:42.756Z,6.63
2018-07-11T11:33:13.020Z,6.63
2018-07-11T11:35:42.611Z,7.17
2018-07-11T11:38:12.334Z,7.00
2018-07-11T11:40:41.981Z,6.80
2018-07-11T11:43:11.444Z,7.30
2018-07-11T11:45:42.057Z,6.70
2018-07-11T11:48:11.592Z,6.80
2018-07-11T11:50:41.666Z,7.03
2018-07-11T11:53:11.277Z,7.33
2018-07-11T11:55:40.698Z,7.20
2018-07-11T11:58:10.185Z,6.60
2018-07-11T12:00:39.708Z,6.43
2018-07-11T12:03:09.185Z,6.50
2018-07-11T12:05:38.754Z,7.43
2018-07-11T12:08:08.270Z,7.00
2018-07-11T12:10:37.301Z,7.10
2018-07-11T12:13:06.623Z,7.67
2018-07-11T12:15:36.061Z,7.10
2018-07-11T12:18:05.468Z,6.87
2018-07-11T12:20:34.767Z,5.63
2018-07-11T12:23:04.342Z,5.67
2018-07-11T12:25:34.185Z,6.60
2018-07-11T12:28:03.722Z,6.30
2018-07-11T12:30:33.230Z,7.00
2018-07-11T12:33:02.777Z,6.20
2018-07-11T12:35:32.356Z,6.17
2018-07-11T12:38:02.121Z,6.27
2018-07-11T12:40:31.532Z,6.17
2018-07-11T12:43:01.219Z,6.30
2018-07-11T12:45:30.698Z,5.93
2018-07-11T12:48:05.363Z,6.60
2018-07-11T12:50:34.929Z,5.70
2018-07-11T12:53:04.493Z,5.97
2018-07-11T12:55:34.088Z,5.77
2018-07-11T12:58:03.636Z,6.80
2018-07-11T13:00:33.137Z,6.37
2018-07-11T13:03:02.816Z,5.60
2018-07-11T13:05:32.509Z,5.47
2018-07-11T13:08:02.764Z,5.37
2018-07-11T13:10:32.196Z,4.97
2018-07-11T13:13:01.826Z,6.40
2018-07-11T13:15:31.348Z,6.93
2018-07-11T13:18:01.093Z,4.90
2018-07-11T13:20:30.618Z,5.37
2018-07-11T13:23:01.121Z,6.03
2018-07-11T13:25:30.706Z,5.10
2018-07-11T13:28:00.211Z,4.70
2018-07-11T13:30:29.679Z,5.60
2018-07-11T13:32:59.387Z,5.80
2018-07-11T13:35:28.857Z,5.37
2018-07-11T13:37:59.150Z,6.00
2018-07-11T13:40:28.674Z,6.40
2018-07-11T13:42:58.700Z,6.40
2018-07-11T13:45:29.166Z,5.60
2018-07-11T13:48:02.278Z,5.87
2018-07-11T13:50:41.550Z,5.23
2018-07-11T13:53:11.056Z,7.10
2018-07-11T13:55:41.564Z,6.43
2018-07-11T13:58:11.235Z,5.27
2018-07-11T14:00:40.861Z,5.70
2018-07-11T14:03:20.199Z,6.10
2018-07-11T14:05:50.362Z,5.40
2018-07-11T14:08:20.231Z,5.70
2018-07-11T14:10:49.835Z,6.40
2018-07-11T14:13:19.378Z,5.93
2018-07-11T14:15:49.036Z,4.97
2018-07-11T14:18:18.835Z,6.53
2018-07-11T14:20:48.691Z,5.30
2018-07-11T14:23:28.089Z,5.77
2018-07-11T14:26:00.672Z,5.30
2018-07-11T14:28:31.902Z,6.00
2018-07-11T14:31:02.475Z,7.47
2018-07-11T14:33:33.005Z,7.60
2018-07-11T14:36:02.958Z,6.90
2018-07-11T14:38:32.778Z,6.97
2018-07-11T14:41:03.381Z,7.27
2018-07-11T14:43:33.459Z,7.40
2018-07-11T14:46:04.123Z,7.30
2018-07-11T14:48:33.766Z,6.97
2018-07-11T14:51:03.323Z,7.60
2018-07-11T14:53:32.859Z,7.60
2018-07-11T14:56:02.289Z,7.23
2018-07-11T14:58:31.736Z,7.60
2018-07-11T15:01:01.764Z,6.50
2018-07-11T15:03:31.390Z,6.70
2018-07-11T15:06:00.826Z,6.43
2018-07-11T15:08:30.428Z,5.73
2018-07-11T15:11:00.181Z,5.10
2018-07-11T15:13:29.720Z,4.90
2018-07-11T15:15:59.269Z,5.77
2018-07-11T15:18:28.931Z,6.17
2018-07-11T15:20:58.564Z,5.47
2018-07-11T15:23:28.749Z,6.20
2018-07-11T15:25:58.303Z,5.30
2018-07-11T15:28:27.755Z,7.30
2018-07-11T15:30:58.344Z,8.70
2018-07-11T15:33:29.209Z,8.00
2018-07-11T15:35:58.773Z,7.93
2018-07-11T15:38:28.664Z,8.57
2018-07-11T15:40:59.423Z,8.47
2018-07-11T15:43:29.699Z,8.83
2018-07-11T15:45:59.770Z,8.93
2018-07-11T15:48:29.515Z,8.13
2018-07-11T15:51:00.278Z,8.20
2018-07-11T15:53:30.281Z,8.63
2018-07-11T15:56:01.839Z,7.73
2018-07-11T15:58:35.828Z,8.37
2018-07-11T16:01:07.861Z,7.77
2018-07-11T16:03:47.622Z,7.40
2018-07-11T16:06:18.449Z,7.07
2018-07-11T16:08:53.357Z,7.50
2018-07-11T16:11:24.566Z,8.80
2018-07-11T16:14:09.406Z,7.10
2018-07-11T16:16:44.530Z,7.30
2018-07-11T16:19:16.232Z,7.97
2018-07-11T16:21:58.260Z,6.83
2018-07-11T16:24:33.773Z,6.93
2018-07-11T16:27:04.421Z,8.07
2018-07-11T16:29:36.436Z,7.57
2018-07-11T16:32:13.506Z,8.07
2018-07-11T16:34:49.044Z,8.10
2018-07-11T16:37:22.198Z,7.00
2018-07-11T16:39:53.960Z,8.63
2018-07-11T16:42:25.989Z,8.60
2018-07-11T16:44:59.960Z,7.77
2018-07-11T16:47:32.694Z,8.03
2018-07-11T16:50:05.104Z,7.83
2018-07-11T16:52:39.604Z,8.80
2018-07-11T16:55:15.562Z,7.70
2018-07-11T16:57:51.188Z,7.13
2018-07-11T17:00:37.190Z,7.73
2018-07-11T17:03:22.562Z,8.43
2018-07-11T17:06:02.508Z,8.73
2018-07-11T17:08:45.367Z,7.30
2018-07-11T17:11:20.604Z,7.70
2018-07-11T17:14:05.198Z,7.53
2018-07-11T17:16:45.722Z,8.10
2018-07-11T17:22:16.294Z,8.50
2018-07-11T17:24:50.569Z,8.17
2018-07-11T17:27:25.694Z,8.60
2018-07-11T17:30:04.017Z,8.27
2018-07-11T17:32:35.985Z,8.00
2018-07-11T17:35:11.416Z,8.03
2018-07-11T17:37:46.369Z,8.20
2018-07-11T17:40:19.201Z,7.20
2018-07-11T17:42:54.954Z,6.73
2018-07-11T17:45:31.338Z,7.00
2018-07-11T17:48:15.567Z,6.77
2018-07-11T17:50:46.893Z,7.47
2018-07-11T17:53:22.979Z,6.40
2018-07-11T17:56:06.312Z,6.77
2018-07-11T17:58:58.706Z,7.90
2018-07-11T18:01:44.325Z,7.93
2018-07-11T18:06:41.627Z,7.27
2018-07-11T18:09:14.143Z,6.90
2018-07-11T18:11:59.724Z,6.53
2018-07-11T18:14:31.106Z,5.93
2018-07-11T18:17:11.977Z,6.53
2018-07-11T18:21:57.476Z,5.47
2018-07-11T18:26:49.154Z,5.87
2018-07-11T18:29:34.867Z,5.60
2018-07-11T18:32:39.602Z,6.13
2018-07-11T18:35:22.872Z,5.77
2018-07-11T18:37:59.365Z,5.33
2018-07-11T18:40:37.691Z,5.57
2018-07-11T18:43:20.634Z,5.23
2018-07-11T18:46:35.349Z,5.90
2018-07-11T18:49:22.887Z,5.47
2018-07-11T18:52:16.585Z,5.40
2018-07-11T18:54:57.557Z,6.37
2018-07-11T18:57:36.801Z,6.10
2018-07-11T19:00:28.921Z,5.97
2018-07-11T19:03:23.743Z,5.73
2018-07-11T19:06:11.387Z,6.80
2018-07-11T19:09:10.541Z,5.77
2018-07-11T19:12:08.266Z,6.23
2018-07-11T19:14:43.471Z,6.63
2018-07-11T19:17:26.845Z,6.77
2018-07-11T19:22:12.089Z,6.37
2018-07-11T19:24:55.887Z,5.70
2018-07-11T19:27:33.384Z,6.87
2018-07-11T19:30:18.671Z,6.23
2018-07-11T19:33:03.080Z,6.23
2018-07-11T19:35:51.711Z,6.73
2018-07-11T19:38:34.041Z,7.03
2018-07-11T19:41:24.293Z,7.17
2018-07-11T19:46:08.877Z,5.90
2018-07-11T19:48:46.322Z,6.90
2018-07-11T19:51:38.911Z,6.90
2018-07-11T19:54:18.090Z,6.80
2018-07-11T19:56:50.013Z,6.97
2018-07-11T19:59:20.575Z,15.17
2018-07-11T20:01:50.860Z,7.87
2018-07-11T20:04:21.971Z,7.93
2018-07-11T20:06:53.708Z,7.67
2018-07-11T20:09:24.204Z,7.40
2018-07-11T20:11:56.955Z,7.90
2018-07-11T20:14:30.590Z,6.60
2018-07-11T20:17:02.955Z,8.03
2018-07-11T20:19:34.413Z,6.77
2018-07-11T20:22:06.731Z,6.80
2018-07-11T20:24:38.849Z,7.07
2018-07-11T20:27:10.111Z,7.53
2018-07-11T20:29:41.423Z,6.50
2018-07-11T20:32:12.779Z,7.13
2018-07-11T20:34:44.470Z,7.47
2018-07-11T20:37:15.686Z,7.30
2018-07-11T20:39:47.856Z,8.73
2018-07-11T20:42:18.832Z,8.57
2018-07-11T20:44:49.899Z,7.57
2018-07-11T20:47:21.720Z,7.53
2018-07-11T20:49:54.339Z,8.13
2018-07-11T20:52:26.767Z,7.00
2018-07-11T20:55:00.178Z,7.07
2018-07-11T20:57:31.477Z,7.60
2018-07-11T21:00:13.192Z,6.93
2018-07-11T21:03:12.930Z,6.93
2018-07-11T21:05:54.948Z,7.30
2018-07-11T21:09:55.484Z,7.07
2018-07-11T21:12:42.064Z,9.90
2018-07-11T21:18:29.576Z,7.93
2018-07-11T21:21:06.891Z,7.50
2018-07-11T21:23:37.327Z,6.57
2018-07-11T21:26:09.452Z,7.23
2018-07-11T21:28:48.056Z,7.63
2018-07-11T21:31:25.463Z,8.23
2018-07-11T21:33:58.181Z,7.33
2018-07-11T21:36:29.450Z,8.87
2018-07-11T21:39:01.841Z,7.90
2018-07-11T21:41:33.136Z,8.00
2018-07-11T21:44:10.933Z,8.20
2018-07-11T21:46:47.896Z,7.63
2018-07-11T21:49:23.821Z,7.10
2018-07-11T21:51:55.189Z,7.17
2018-07-11T21:54:26.395Z,8.30
2018-07-11T21:56:58.591Z,8.20
2018-07-11T21:59:30.113Z,7.90
2018-07-11T22:02:00.151Z,9.40
2018-07-11T22:04:37.365Z,9.30
2018-07-11T22:07:08.560Z,10.47
2018-07-11T22:09:39.533Z,9.90
2018-07-11T22:12:10.795Z,10.37
2018-07-11T22:14:42.138Z,12.50
2018-07-11T22:17:23.531Z,10.60
2018-07-11T22:19:53.408Z,11.13
2018-07-11T22:22:22.392Z,11.40
2018-07-11T22:24:55.488Z,11.70
2018-07-11T22:27:26.270Z,12.23
2018-07-11T22:29:56.419Z,12.13
2018-07-11T22:32:25.642Z,10.97
2018-07-11T22:34:54.672Z,12.40
2018-07-11T22:37:22.891Z,11.27
2018-07-11T22:39:51.262Z,11.90
2018-07-11T22:42:19.433Z,10.63
2018-07-11T22:44:48.108Z,11.67
2018-07-11T22:47:16.963Z,11.97
2018-07-11T22:49:50.402Z,12.63
2018-07-11T22:52:19.004Z,13.00
2018-07-11T22:54:47.122Z,11.93
2018-07-11T22:57:16.269Z,12.63
2018-07-11T22:59:45.233Z,12.80
2018-07-11T23:02:14.799Z,12.80
2018-07-11T23:04:43.529Z,11.77
2018-07-11T23:07:12.491Z,13.30
2018-07-11T23:09:41.515Z,13.40
2018-07-11T23:12:09.697Z,14.53
2018-07-11T23:14:38.649Z,14.80
2018-07-11T23:17:07.937Z,13.73
2018-07-11T23:19:37.440Z,13.37
2018-07-11T23:22:06.553Z,14.00
2018-07-11T23:24:35.455Z,14.30
2018-07-11T23:27:03.981Z,14.17
2018-07-11T23:29:32.772Z,13.40
2018-07-11T23:32:01.379Z,12.70
2018-07-11T23:34:31.117Z,13.87
2018-07-11T23:37:00.148Z,13.90
2018-07-11T23:39:29.707Z,13.33
2018-07-11T23:41:58.938Z,13.50
2018-07-11T23:44:28.246Z,14.53
2018-07-11T23:46:57.721Z,13.67
2018-07-11T23:49:26.658Z,14.73
2018-07-11T23:51:55.476Z,14.30
2018-07-11T23:54:24.242Z,13.70
2018-07-11T23:56:53.231Z,13.90
2018-07-11T23:59:22.607Z,13.67
